sensor_id;sensor_type;location;lat;lon;timestamp;pressure;altitude;pressure_sealevel;temperature;humidity
68544;BME280;55534;52.222;5.156;2023-06-26T00:00:01;101104.03;;;23.97;100.00
68544;BME280;55534;52.222;5.156;2023-06-26T00:02:30;101244.16;;;24.91;100.00
68544;BME280;55534;52.222;5.156;2023-06-26T00:04:58;101212.19;;;24.67;100.00
68544;BME280;55534;52.222;5.156;2023-06-26T00:07:24;101197.94;;;24.55;100.00
68544;BME280;55534;52.222;5.156;2023-06-26T00:09:49;101225.66;;;24.73;100.00
68544;BME280;55534;52.222;5.156;2023-06-26T00:12:14;101234.09;;;24.86;100.00
68544;BME280;55534;52.222;5.156;2023-06-26T00:14:40;101144.91;;;24.18;100.00
68544;BME280;55534;52.222;5.156;2023-06-26T00:17:05;101159.81;;;24.25;100.00
68544;BME280;55534;52.222;5.156;2023-06-26T00:19:31;101187.31;;;24.46;100.00
68544;BME280;55534;52.222;5.156;2023-06-26T00:21:56;101190.28;;;24.48;100.00
68544;BME280;55534;52.222;5.156;2023-06-26T00:24:22;101224.66;;;24.70;100.00
68544;BME280;55534;52.222;5.156;2023-06-26T00:26:47;101221.41;;;24.66;100.00
68544;BME280;55534;52.222;5.156;2023-06-26T00:29:13;101211.31;;;24.55;100.00
68544;BME280;55534;52.222;5.156;2023-06-26T00:31:41;101218.38;;;24.58;100.00
68544;BME280;55534;52.222;5.156;2023-06-26T00:34:06;101215.44;;;24.56;100.00
68544;BME280;55534;52.222;5.156;2023-06-26T00:36:32;101113.59;;;23.89;100.00
68544;BME280;55534;52.222;5.156;2023-06-26T00:38:58;101213.88;;;24.50;100.00
68544;BME280;55534;52.222;5.156;2023-06-26T00:41:23;101160.28;;;24.09;100.00
68544;BME280;55534;52.222;5.156;2023-06-26T00:43:49;101217.63;;;24.43;100.00
68544;BME280;55534;52.222;5.156;2023-06-26T00:46:15;101162.28;;;23.99;100.00
68544;BME280;55534;52.222;5.156;2023-06-26T00:48:42;101202.19;;;24.17;100.00
68544;BME280;55534;52.222;5.156;2023-06-26T00:51:08;101158.59;;;23.81;100.00
68544;BME280;55534;52.222;5.156;2023-06-26T00:53:34;101217.19;;;24.15;100.00
68544;BME280;55534;52.222;5.156;2023-06-26T00:56:03;101233.41;;;24.26;100.00
68544;BME280;55534;52.222;5.156;2023-06-26T00:58:29;101240.75;;;24.31;100.00
68544;BME280;55534;52.222;5.156;2023-06-26T01:00:56;101244.56;;;24.24;100.00
68544;BME280;55534;52.222;5.156;2023-06-26T01:03:23;101187.72;;;23.94;100.00
68544;BME280;55534;52.222;5.156;2023-06-26T01:05:50;101224.56;;;24.20;100.00
68544;BME280;55534;52.222;5.156;2023-06-26T01:08:17;101232.94;;;24.27;100.00
68544;BME280;55534;52.222;5.156;2023-06-26T01:10:44;101167.09;;;23.80;100.00
68544;BME280;55534;52.222;5.156;2023-06-26T01:13:11;101214.88;;;24.07;100.00
68544;BME280;55534;52.222;5.156;2023-06-26T01:15:37;101198.41;;;23.94;100.00
68544;BME280;55534;52.222;5.156;2023-06-26T01:18:03;101252.91;;;24.17;100.00
68544;BME280;55534;52.222;5.156;2023-06-26T01:20:31;101170.22;;;23.54;100.00
68544;BME280;55534;52.222;5.156;2023-06-26T01:25:33;101280.84;;;24.16;100.00
68544;BME280;55534;52.222;5.156;2023-06-26T01:28:07;101256.94;;;23.98;100.00
68544;BME280;55534;52.222;5.156;2023-06-26T01:30:36;101285.81;;;24.09;100.00
68544;BME280;55534;52.222;5.156;2023-06-26T01:33:03;101215.97;;;23.62;100.00
68544;BME280;55534;52.222;5.156;2023-06-26T01:35:29;101188.97;;;23.45;100.00
68544;BME280;55534;52.222;5.156;2023-06-26T01:38:17;101269.09;;;23.84;100.00
68544;BME280;55534;52.222;5.156;2023-06-26T01:40:43;101260.97;;;23.78;100.00
68544;BME280;55534;52.222;5.156;2023-06-26T01:46:11;101263.63;;;23.78;100.00
68544;BME280;55534;52.222;5.156;2023-06-26T01:51:46;101261.34;;;23.62;100.00
68544;BME280;55534;52.222;5.156;2023-06-26T01:54:18;101258.13;;;23.58;100.00
68544;BME280;55534;52.222;5.156;2023-06-26T01:56:45;101186.00;;;22.95;100.00
68544;BME280;55534;52.222;5.156;2023-06-26T01:59:14;101232.84;;;23.20;100.00
68544;BME280;55534;52.222;5.156;2023-06-26T02:01:40;101226.44;;;22.93;100.00
68544;BME280;55534;52.222;5.156;2023-06-26T02:04:06;101258.53;;;23.08;100.00
68544;BME280;55534;52.222;5.156;2023-06-26T02:06:31;101253.06;;;23.02;100.00
68544;BME280;55534;52.222;5.156;2023-06-26T02:08:58;101238.28;;;22.92;100.00
68544;BME280;55534;52.222;5.156;2023-06-26T02:11:23;101270.81;;;23.15;100.00
68544;BME280;55534;52.222;5.156;2023-06-26T02:13:49;101258.25;;;23.06;100.00
68544;BME280;55534;52.222;5.156;2023-06-26T02:16:14;101258.69;;;23.04;100.00
68544;BME280;55534;52.222;5.156;2023-06-26T02:18:41;101269.19;;;23.08;100.00
68544;BME280;55534;52.222;5.156;2023-06-26T02:21:07;101237.31;;;22.80;100.00
68544;BME280;55534;52.222;5.156;2023-06-26T02:23:32;101270.13;;;22.96;100.00
68544;BME280;55534;52.222;5.156;2023-06-26T02:25:58;101258.16;;;22.82;100.00
68544;BME280;55534;52.222;5.156;2023-06-26T02:28:23;101275.63;;;22.92;100.00
68544;BME280;55534;52.222;5.156;2023-06-26T02:30:49;101253.63;;;22.73;100.00
68544;BME280;55534;52.222;5.156;2023-06-26T02:33:14;101280.09;;;22.77;100.00
68544;BME280;55534;52.222;5.156;2023-06-26T02:35:40;101262.50;;;22.61;100.00
68544;BME280;55534;52.222;5.156;2023-06-26T02:38:05;101281.00;;;22.74;100.00
68544;BME280;55534;52.222;5.156;2023-06-26T02:40:31;101237.69;;;22.45;100.00
68544;BME280;55534;52.222;5.156;2023-06-26T02:42:57;101282.00;;;22.76;100.00
68544;BME280;55534;52.222;5.156;2023-06-26T02:45:23;101261.78;;;22.60;100.00
68544;BME280;55534;52.222;5.156;2023-06-26T02:47:48;101292.69;;;22.76;100.00
68544;BME280;55534;52.222;5.156;2023-06-26T02:50:14;101244.66;;;22.43;100.00
68544;BME280;55534;52.222;5.156;2023-06-26T02:52:58;101289.75;;;22.65;100.00
68544;BME280;55534;52.222;5.156;2023-06-26T02:55:24;101298.19;;;22.63;100.00
68544;BME280;55534;52.222;5.156;2023-06-26T02:57:51;101260.81;;;22.30;100.00
68544;BME280;55534;52.222;5.156;2023-06-26T03:00:17;101287.84;;;22.47;100.00
68544;BME280;55534;52.222;5.156;2023-06-26T03:02:47;101301.47;;;22.40;100.00
68544;BME280;55534;52.222;5.156;2023-06-26T03:05:16;101203.59;;;21.70;100.00
68544;BME280;55534;52.222;5.156;2023-06-26T03:07:42;101273.34;;;22.11;100.00
68544;BME280;55534;52.222;5.156;2023-06-26T03:10:09;101276.63;;;22.06;100.00
68544;BME280;55534;52.222;5.156;2023-06-26T03:12:35;101289.63;;;22.04;100.00
68544;BME280;55534;52.222;5.156;2023-06-26T03:15:00;101239.66;;;21.62;100.00
68544;BME280;55534;52.222;5.156;2023-06-26T03:17:26;101268.75;;;21.74;100.00
68544;BME280;55534;52.222;5.156;2023-06-26T03:19:54;101244.50;;;21.54;100.00
68544;BME280;55534;52.222;5.156;2023-06-26T03:22:22;101325.13;;;22.01;100.00
68544;BME280;55534;52.222;5.156;2023-06-26T03:24:47;101300.41;;;21.91;100.00
68544;BME280;55534;52.222;5.156;2023-06-26T03:27:13;101264.16;;;21.57;100.00
68544;BME280;55534;52.222;5.156;2023-06-26T03:29:39;101286.19;;;21.66;100.00
68544;BME280;55534;52.222;5.156;2023-06-26T03:32:05;101289.59;;;21.58;100.00
68544;BME280;55534;52.222;5.156;2023-06-26T03:34:31;101272.06;;;21.38;100.00
68544;BME280;55534;52.222;5.156;2023-06-26T03:36:56;101302.44;;;21.59;100.00
68544;BME280;55534;52.222;5.156;2023-06-26T03:39:22;101315.72;;;21.59;100.00
68544;BME280;55534;52.222;5.156;2023-06-26T03:41:48;101313.69;;;21.63;100.00
68544;BME280;55534;52.222;5.156;2023-06-26T03:44:13;101295.31;;;21.47;100.00
68544;BME280;55534;52.222;5.156;2023-06-26T03:46:45;101304.78;;;21.48;100.00
68544;BME280;55534;52.222;5.156;2023-06-26T03:49:10;101318.72;;;21.61;100.00
68544;BME280;55534;52.222;5.156;2023-06-26T03:51:36;101328.00;;;21.57;100.00
68544;BME280;55534;52.222;5.156;2023-06-26T03:54:02;101284.53;;;21.10;100.00
68544;BME280;55534;52.222;5.156;2023-06-26T03:56:27;101340.81;;;21.49;100.00
68544;BME280;55534;52.222;5.156;2023-06-26T03:58:53;101270.47;;;21.00;100.00
68544;BME280;55534;52.222;5.156;2023-06-26T04:01:19;101294.56;;;21.15;100.00
68544;BME280;55534;52.222;5.156;2023-06-26T04:03:47;101342.69;;;21.39;100.00
68544;BME280;55534;52.222;5.156;2023-06-26T04:06:13;101329.03;;;21.28;100.00
68544;BME280;55534;52.222;5.156;2023-06-26T04:08:38;101283.28;;;20.92;100.00
68544;BME280;55534;52.222;5.156;2023-06-26T04:11:04;101325.91;;;21.20;100.00
68544;BME280;55534;52.222;5.156;2023-06-26T04:13:30;101309.91;;;21.02;100.00
68544;BME280;55534;52.222;5.156;2023-06-26T04:15:55;101341.56;;;21.18;100.00
68544;BME280;55534;52.222;5.156;2023-06-26T04:18:21;101336.50;;;21.11;100.00
68544;BME280;55534;52.222;5.156;2023-06-26T04:21:08;101369.22;;;21.30;100.00
68544;BME280;55534;52.222;5.156;2023-06-26T04:23:34;101373.81;;;21.29;100.00
68544;BME280;55534;52.222;5.156;2023-06-26T04:26:01;101357.03;;;21.10;100.00
68544;BME280;55534;52.222;5.156;2023-06-26T04:28:28;101362.47;;;21.07;100.00
68544;BME280;55534;52.222;5.156;2023-06-26T04:30:53;101397.56;;;21.24;100.00
68544;BME280;55534;52.222;5.156;2023-06-26T04:33:19;101367.59;;;21.01;100.00
68544;BME280;55534;52.222;5.156;2023-06-26T04:35:44;101316.91;;;20.64;100.00
68544;BME280;55534;52.222;5.156;2023-06-26T04:38:14;101356.72;;;20.86;100.00
68544;BME280;55534;52.222;5.156;2023-06-26T04:40:39;101331.78;;;20.62;100.00
68544;BME280;55534;52.222;5.156;2023-06-26T04:43:05;101350.31;;;20.74;100.00
68544;BME280;55534;52.222;5.156;2023-06-26T04:45:30;101412.28;;;21.15;100.00
68544;BME280;55534;52.222;5.156;2023-06-26T04:47:55;101388.69;;;20.95;100.00
68544;BME280;55534;52.222;5.156;2023-06-26T04:50:22;101376.63;;;20.82;100.00
68544;BME280;55534;52.222;5.156;2023-06-26T04:52:47;101369.03;;;20.71;100.00
68544;BME280;55534;52.222;5.156;2023-06-26T04:55:13;101387.25;;;20.82;100.00
68544;BME280;55534;52.222;5.156;2023-06-26T04:57:38;101369.47;;;20.69;100.00
68544;BME280;55534;52.222;5.156;2023-06-26T05:00:04;101350.72;;;20.51;100.00
68544;BME280;55534;52.222;5.156;2023-06-26T05:02:35;101389.00;;;20.75;100.00
68544;BME280;55534;52.222;5.156;2023-06-26T05:05:01;101395.34;;;20.78;100.00
68544;BME280;55534;52.222;5.156;2023-06-26T05:07:26;101395.78;;;20.76;100.00
68544;BME280;55534;52.222;5.156;2023-06-26T05:09:51;101390.03;;;20.78;100.00
68544;BME280;55534;52.222;5.156;2023-06-26T05:12:17;101426.19;;;20.98;100.00
68544;BME280;55534;52.222;5.156;2023-06-26T05:14:42;101416.13;;;20.92;100.00
68544;BME280;55534;52.222;5.156;2023-06-26T05:17:08;101389.63;;;20.80;100.00
68544;BME280;55534;52.222;5.156;2023-06-26T05:19:33;101433.31;;;21.01;100.00
68544;BME280;55534;52.222;5.156;2023-06-26T05:22:01;101440.28;;;21.07;100.00
68544;BME280;55534;52.222;5.156;2023-06-26T05:24:30;101407.34;;;20.83;100.00
68544;BME280;55534;52.222;5.156;2023-06-26T05:26:56;101410.00;;;20.83;100.00
68544;BME280;55534;52.222;5.156;2023-06-26T05:29:22;101389.34;;;20.65;100.00
68544;BME280;55534;52.222;5.156;2023-06-26T05:31:49;101450.91;;;21.07;100.00
68544;BME280;55534;52.222;5.156;2023-06-26T05:34:15;101424.34;;;20.85;100.00
68544;BME280;55534;52.222;5.156;2023-06-26T05:36:42;101385.84;;;20.55;100.00
68544;BME280;55534;52.222;5.156;2023-06-26T05:39:09;101440.59;;;20.87;100.00
68544;BME280;55534;52.222;5.156;2023-06-26T05:41:36;101462.66;;;20.97;100.00
68544;BME280;55534;52.222;5.156;2023-06-26T05:44:01;101481.75;;;21.05;100.00
68544;BME280;55534;52.222;5.156;2023-06-26T05:46:27;101472.31;;;21.04;100.00
68544;BME280;55534;52.222;5.156;2023-06-26T05:48:52;101447.13;;;20.73;100.00
68544;BME280;55534;52.222;5.156;2023-06-26T05:51:18;101468.47;;;20.83;100.00
68544;BME280;55534;52.222;5.156;2023-06-26T05:53:44;101454.91;;;20.68;100.00
68544;BME280;55534;52.222;5.156;2023-06-26T05:56:09;101494.25;;;20.95;100.00
68544;BME280;55534;52.222;5.156;2023-06-26T05:58:35;101493.06;;;20.96;100.00
68544;BME280;55534;52.222;5.156;2023-06-26T06:01:01;101505.91;;;20.98;100.00
68544;BME280;55534;52.222;5.156;2023-06-26T06:03:26;101478.22;;;20.86;100.00
68544;BME280;55534;52.222;5.156;2023-06-26T06:05:51;101500.72;;;20.94;100.00
68544;BME280;55534;52.222;5.156;2023-06-26T06:08:17;101520.69;;;20.99;100.00
68544;BME280;55534;52.222;5.156;2023-06-26T06:10:42;101522.50;;;21.02;100.00
68544;BME280;55534;52.222;5.156;2023-06-26T06:13:08;101515.28;;;21.02;100.00
68544;BME280;55534;52.222;5.156;2023-06-26T06:15:33;101515.88;;;21.06;100.00
68544;BME280;55534;52.222;5.156;2023-06-26T06:17:59;101508.16;;;20.99;100.00
68544;BME280;55534;52.222;5.156;2023-06-26T06:20:24;101537.84;;;21.20;100.00
68544;BME280;55534;52.222;5.156;2023-06-26T06:22:50;101514.84;;;21.04;100.00
68544;BME280;55534;52.222;5.156;2023-06-26T06:25:15;101537.34;;;21.12;100.00
68544;BME280;55534;52.222;5.156;2023-06-26T06:27:41;101504.16;;;20.82;100.00
68544;BME280;55534;52.222;5.156;2023-06-26T06:30:07;101557.06;;;21.02;100.00
68544;BME280;55534;52.222;5.156;2023-06-26T06:32:33;101558.94;;;21.01;100.00
68544;BME280;55534;52.222;5.156;2023-06-26T06:34:58;101565.19;;;21.07;100.00
68544;BME280;55534;52.222;5.156;2023-06-26T06:37:24;101550.75;;;21.08;100.00
68544;BME280;55534;52.222;5.156;2023-06-26T06:39:49;101568.03;;;21.26;100.00
68544;BME280;55534;52.222;5.156;2023-06-26T06:42:15;101580.50;;;21.38;100.00
68544;BME280;55534;52.222;5.156;2023-06-26T06:44:40;101585.72;;;21.42;100.00
68544;BME280;55534;52.222;5.156;2023-06-26T06:47:06;101586.72;;;21.35;100.00
68544;BME280;55534;52.222;5.156;2023-06-26T06:49:31;101560.72;;;21.17;100.00
68544;BME280;55534;52.222;5.156;2023-06-26T06:51:56;101510.84;;;20.86;100.00
68544;BME280;55534;52.222;5.156;2023-06-26T06:54:26;101582.75;;;21.40;100.00
68544;BME280;55534;52.222;5.156;2023-06-26T06:56:52;101592.75;;;21.35;100.00
68544;BME280;55534;52.222;5.156;2023-06-26T06:59:17;101580.38;;;21.20;100.00
68544;BME280;55534;52.222;5.156;2023-06-26T07:01:43;101526.34;;;20.88;100.00
68544;BME280;55534;52.222;5.156;2023-06-26T07:04:08;101597.03;;;21.46;100.00
68544;BME280;55534;52.222;5.156;2023-06-26T07:06:34;101586.41;;;21.33;100.00
68544;BME280;55534;52.222;5.156;2023-06-26T07:08:59;101570.06;;;21.22;100.00
68544;BME280;55534;52.222;5.156;2023-06-26T07:11:25;101605.75;;;21.46;100.00
68544;BME280;55534;52.222;5.156;2023-06-26T07:13:50;101550.84;;;21.18;100.00
68544;BME280;55534;52.222;5.156;2023-06-26T07:16:16;101488.13;;;20.72;100.00
68544;BME280;55534;52.222;5.156;2023-06-26T07:18:41;101609.56;;;21.45;100.00
68544;BME280;55534;52.222;5.156;2023-06-26T07:21:07;101594.06;;;21.31;100.00
68544;BME280;55534;52.222;5.156;2023-06-26T07:23:32;101613.81;;;21.43;100.00
68544;BME280;55534;52.222;5.156;2023-06-26T07:25:58;101611.28;;;21.39;100.00
68544;BME280;55534;52.222;5.156;2023-06-26T07:28:24;101562.22;;;21.05;100.00
68544;BME280;55534;52.222;5.156;2023-06-26T07:30:50;101583.25;;;21.25;100.00
68544;BME280;55534;52.222;5.156;2023-06-26T07:33:15;101623.25;;;21.57;100.00
68544;BME280;55534;52.222;5.156;2023-06-26T07:35:41;101634.41;;;21.64;100.00
68544;BME280;55534;52.222;5.156;2023-06-26T07:38:06;101622.22;;;21.54;100.00
68544;BME280;55534;52.222;5.156;2023-06-26T07:40:32;101631.22;;;21.57;100.00
68544;BME280;55534;52.222;5.156;2023-06-26T07:42:57;101577.84;;;21.16;100.00
68544;BME280;55534;52.222;5.156;2023-06-26T07:45:23;101643.78;;;21.56;100.00
68544;BME280;55534;52.222;5.156;2023-06-26T07:47:49;101587.94;;;21.21;100.00
68544;BME280;55534;52.222;5.156;2023-06-26T07:50:14;101625.94;;;21.44;100.00
68544;BME280;55534;52.222;5.156;2023-06-26T07:52:44;101660.69;;;21.62;100.00
68544;BME280;55534;52.222;5.156;2023-06-26T07:55:10;101654.19;;;21.63;100.00
68544;BME280;55534;52.222;5.156;2023-06-26T07:57:35;101632.53;;;21.52;100.00
68544;BME280;55534;52.222;5.156;2023-06-26T08:00:01;101653.41;;;21.76;100.00
68544;BME280;55534;52.222;5.156;2023-06-26T08:02:27;101670.28;;;21.82;100.00
68544;BME280;55534;52.222;5.156;2023-06-26T08:04:52;101643.78;;;21.78;100.00
68544;BME280;55534;52.222;5.156;2023-06-26T08:07:17;101668.75;;;21.93;100.00
68544;BME280;55534;52.222;5.156;2023-06-26T08:09:44;101657.75;;;21.82;100.00
68544;BME280;55534;52.222;5.156;2023-06-26T08:12:09;101672.47;;;21.96;100.00
68544;BME280;55534;52.222;5.156;2023-06-26T08:14:35;101672.16;;;21.94;100.00
68544;BME280;55534;52.222;5.156;2023-06-26T08:17:01;101644.00;;;21.84;100.00
68544;BME280;55534;52.222;5.156;2023-06-26T08:19:26;101619.03;;;21.46;100.00
68544;BME280;55534;52.222;5.156;2023-06-26T08:21:52;101665.03;;;21.69;100.00
68544;BME280;55534;52.222;5.156;2023-06-26T08:24:17;101655.28;;;21.53;100.00
68544;BME280;55534;52.222;5.156;2023-06-26T08:26:45;101684.03;;;21.80;100.00
68544;BME280;55534;52.222;5.156;2023-06-26T08:29:11;101689.53;;;21.86;100.00
68544;BME280;55534;52.222;5.156;2023-06-26T08:31:38;101702.84;;;21.86;100.00
68544;BME280;55534;52.222;5.156;2023-06-26T08:34:04;101685.72;;;21.87;100.00
68544;BME280;55534;52.222;5.156;2023-06-26T08:36:30;101677.41;;;21.85;100.00
68544;BME280;55534;52.222;5.156;2023-06-26T08:38:56;101687.53;;;21.90;100.00
68544;BME280;55534;52.222;5.156;2023-06-26T08:41:21;101698.16;;;21.90;100.00
68544;BME280;55534;52.222;5.156;2023-06-26T08:43:47;101681.69;;;21.82;100.00
68544;BME280;55534;52.222;5.156;2023-06-26T08:46:14;101649.56;;;21.77;100.00
68544;BME280;55534;52.222;5.156;2023-06-26T08:48:42;101693.84;;;22.05;100.00
68544;BME280;55534;52.222;5.156;2023-06-26T08:51:11;101693.44;;;22.16;100.00
68544;BME280;55534;52.222;5.156;2023-06-26T08:53:58;101674.81;;;21.94;100.00
68544;BME280;55534;52.222;5.156;2023-06-26T08:56:31;101690.69;;;21.98;100.00
68544;BME280;55534;52.222;5.156;2023-06-26T08:58:57;101707.94;;;21.93;100.00
68544;BME280;55534;52.222;5.156;2023-06-26T09:01:24;101662.34;;;21.47;100.00
68544;BME280;55534;52.222;5.156;2023-06-26T09:03:50;101734.97;;;21.91;100.00
68544;BME280;55534;52.222;5.156;2023-06-26T09:06:16;101723.16;;;21.92;100.00
68544;BME280;55534;52.222;5.156;2023-06-26T09:08:43;101675.53;;;21.50;100.00
68544;BME280;55534;52.222;5.156;2023-06-26T09:11:08;101719.31;;;21.93;100.00
68544;BME280;55534;52.222;5.156;2023-06-26T09:13:34;101739.06;;;21.83;100.00
68544;BME280;55534;52.222;5.156;2023-06-26T09:16:04;101746.63;;;21.85;100.00
68544;BME280;55534;52.222;5.156;2023-06-26T09:18:32;101692.84;;;21.55;100.00
68544;BME280;55534;52.222;5.156;2023-06-26T09:20:57;101753.59;;;21.91;100.00
68544;BME280;55534;52.222;5.156;2023-06-26T09:23:23;101722.69;;;21.72;100.00
68544;BME280;55534;52.222;5.156;2023-06-26T09:25:51;101760.13;;;21.90;100.00
68544;BME280;55534;52.222;5.156;2023-06-26T09:28:16;101747.56;;;21.78;100.00
68544;BME280;55534;52.222;5.156;2023-06-26T09:30:44;101695.84;;;21.44;100.00
68544;BME280;55534;52.222;5.156;2023-06-26T09:33:20;101767.50;;;21.73;100.00
68544;BME280;55534;52.222;5.156;2023-06-26T09:35:47;101707.97;;;21.45;100.00
68544;BME280;55534;52.222;5.156;2023-06-26T09:38:13;101762.16;;;21.86;100.00
68544;BME280;55534;52.222;5.156;2023-06-26T09:40:39;101727.91;;;21.76;100.00
68544;BME280;55534;52.222;5.156;2023-06-26T09:43:06;101760.44;;;22.15;100.00
68544;BME280;55534;52.222;5.156;2023-06-26T09:45:35;101781.19;;;22.20;100.00
68544;BME280;55534;52.222;5.156;2023-06-26T09:48:04;101760.75;;;22.17;100.00
68544;BME280;55534;52.222;5.156;2023-06-26T09:50:32;101782.94;;;22.36;100.00
68544;BME280;55534;52.222;5.156;2023-06-26T09:53:10;101784.03;;;22.38;100.00
68544;BME280;55534;52.222;5.156;2023-06-26T09:55:37;101787.38;;;22.51;100.00
68544;BME280;55534;52.222;5.156;2023-06-26T09:58:03;101786.97;;;22.62;100.00
68544;BME280;55534;52.222;5.156;2023-06-26T10:00:32;101791.81;;;22.77;100.00
68544;BME280;55534;52.222;5.156;2023-06-26T10:02:59;101798.34;;;22.85;100.00
68544;BME280;55534;52.222;5.156;2023-06-26T10:05:25;101706.63;;;22.20;100.00
68544;BME280;55534;52.222;5.156;2023-06-26T10:07:52;101756.63;;;22.38;100.00
68544;BME280;55534;52.222;5.156;2023-06-26T10:10:19;101775.56;;;22.40;100.00
68544;BME280;55534;52.222;5.156;2023-06-26T10:12:48;101725.44;;;21.81;100.00
68544;BME280;55534;52.222;5.156;2023-06-26T10:15:15;101792.75;;;22.39;100.00
68544;BME280;55534;52.222;5.156;2023-06-26T10:17:43;101825.22;;;22.46;100.00
68544;BME280;55534;52.222;5.156;2023-06-26T10:20:09;101824.97;;;22.54;100.00
68544;BME280;55534;52.222;5.156;2023-06-26T10:22:45;101827.63;;;22.54;100.00
68544;BME280;55534;52.222;5.156;2023-06-26T10:25:16;101831.47;;;22.52;100.00
68544;BME280;55534;52.222;5.156;2023-06-26T10:27:46;101808.22;;;22.31;100.00
68544;BME280;55534;52.222;5.156;2023-06-26T10:30:27;101820.63;;;22.47;100.00
68544;BME280;55534;52.222;5.156;2023-06-26T10:32:55;101855.22;;;22.60;100.00
68544;BME280;55534;52.222;5.156;2023-06-26T10:35:21;101767.56;;;22.18;100.00
68544;BME280;55534;52.222;5.156;2023-06-26T10:37:48;101832.69;;;22.61;100.00
68544;BME280;55534;52.222;5.156;2023-06-26T10:40:25;101833.53;;;22.70;100.00
68544;BME280;55534;52.222;5.156;2023-06-26T10:42:50;101836.03;;;22.74;100.00
68544;BME280;55534;52.222;5.156;2023-06-26T10:45:20;101819.56;;;22.66;100.00
68544;BME280;55534;52.222;5.156;2023-06-26T10:47:48;101823.78;;;22.77;100.00
68544;BME280;55534;52.222;5.156;2023-06-26T10:50:27;101848.50;;;22.99;100.00
68544;BME280;55534;52.222;5.156;2023-06-26T10:55:47;101853.63;;;23.16;100.00
68544;BME280;55534;52.222;5.156;2023-06-26T10:58:32;101847.44;;;23.19;100.00
68544;BME280;55534;52.222;5.156;2023-06-26T11:01:25;101855.72;;;23.21;100.00
68544;BME280;55534;52.222;5.156;2023-06-26T11:04:04;101862.41;;;23.25;100.00
68544;BME280;55534;52.222;5.156;2023-06-26T11:06:30;101852.94;;;23.34;100.00
68544;BME280;55534;52.222;5.156;2023-06-26T11:09:01;101869.44;;;23.41;100.00
68544;BME280;55534;52.222;5.156;2023-06-26T11:14:26;101869.00;;;23.43;100.00
68544;BME280;55534;52.222;5.156;2023-06-26T11:16:55;101837.66;;;23.25;100.00
68544;BME280;55534;52.222;5.156;2023-06-26T11:19:22;101849.41;;;23.37;100.00
68544;BME280;55534;52.222;5.156;2023-06-26T11:21:48;101822.31;;;23.38;100.00
68544;BME280;55534;52.222;5.156;2023-06-26T11:24:14;101850.84;;;23.69;100.00
68544;BME280;55534;52.222;5.156;2023-06-26T11:26:40;101867.91;;;23.72;100.00
68544;BME280;55534;52.222;5.156;2023-06-26T11:29:06;101884.41;;;23.79;100.00
68544;BME280;55534;52.222;5.156;2023-06-26T11:31:38;101872.06;;;23.73;100.00
68544;BME280;55534;52.222;5.156;2023-06-26T11:34:06;101872.75;;;23.64;100.00
68544;BME280;55534;52.222;5.156;2023-06-26T11:36:38;101894.38;;;23.57;100.00
68544;BME280;55534;52.222;5.156;2023-06-26T11:39:05;101870.75;;;23.37;100.00
68544;BME280;55534;52.222;5.156;2023-06-26T11:41:32;101899.59;;;23.51;100.00
68544;BME280;55534;52.222;5.156;2023-06-26T11:44:06;101842.91;;;23.06;100.00
68544;BME280;55534;52.222;5.156;2023-06-26T11:46:33;101907.72;;;23.57;100.00
68544;BME280;55534;52.222;5.156;2023-06-26T11:48:59;101911.72;;;23.52;100.00
68544;BME280;55534;52.222;5.156;2023-06-26T11:51:27;101913.69;;;23.61;100.00
68544;BME280;55534;52.222;5.156;2023-06-26T11:53:52;101929.72;;;23.70;100.00
68544;BME280;55534;52.222;5.156;2023-06-26T11:56:18;101932.13;;;23.77;100.00
68544;BME280;55534;52.222;5.156;2023-06-26T11:59:17;101928.31;;;23.78;100.00
68544;BME280;55534;52.222;5.156;2023-06-26T12:01:43;101892.47;;;23.57;100.00
68544;BME280;55534;52.222;5.156;2023-06-26T12:04:14;101879.78;;;23.39;100.00
68544;BME280;55534;52.222;5.156;2023-06-26T12:06:45;101933.94;;;23.80;100.00
68544;BME280;55534;52.222;5.156;2023-06-26T12:09:11;101945.13;;;23.97;100.00
68544;BME280;55534;52.222;5.156;2023-06-26T12:11:39;101943.22;;;24.07;100.00
68544;BME280;55534;52.222;5.156;2023-06-26T12:14:06;101958.66;;;24.21;100.00
68544;BME280;55534;52.222;5.156;2023-06-26T12:16:33;101931.94;;;24.21;100.00
68544;BME280;55534;52.222;5.156;2023-06-26T12:19:00;101944.91;;;24.41;100.00
68544;BME280;55534;52.222;5.156;2023-06-26T12:24:06;101805.84;;;23.49;100.00
68544;BME280;55534;52.222;5.156;2023-06-26T12:26:32;101756.00;;;22.87;100.00
68544;BME280;55534;52.222;5.156;2023-06-26T12:29:10;101901.47;;;23.91;100.00
68544;BME280;55534;52.222;5.156;2023-06-26T12:31:40;101916.78;;;24.00;100.00
68544;BME280;55534;52.222;5.156;2023-06-26T12:34:11;101869.59;;;23.78;100.00
68544;BME280;55534;52.222;5.156;2023-06-26T12:36:48;101964.31;;;24.33;100.00
68544;BME280;55534;52.222;5.156;2023-06-26T12:39:18;101886.34;;;23.79;100.00
68544;BME280;55534;52.222;5.156;2023-06-26T12:41:49;101970.53;;;24.30;100.00
68544;BME280;55534;52.222;5.156;2023-06-26T12:44:26;101976.06;;;24.35;100.00
68544;BME280;55534;52.222;5.156;2023-06-26T12:47:00;101910.03;;;23.77;100.00
68544;BME280;55534;52.222;5.156;2023-06-26T12:49:49;101986.44;;;24.24;100.00
68544;BME280;55534;52.222;5.156;2023-06-26T12:52:15;101981.53;;;24.22;100.00
68544;BME280;55534;52.222;5.156;2023-06-26T12:54:42;101992.09;;;24.35;100.00
68544;BME280;55534;52.222;5.156;2023-06-26T12:57:08;101991.16;;;24.20;100.00